Time,TemperatureF,DewpointF,PressureIn,WindDirection,WindDirectionDegrees,WindSpeedMPH,WindSpeedGustMPH,Humidity,HourlyPrecipIn,Conditions,Clouds,dailyrainin,SoftwareType,DateUTC
2013-01-25 00:00:00,23.6,8.1,30.17,East,99,1.0,2.0,51,0.00,OVC,,0.00,WeatherDisplay:10.37,2013-01-25 06:00:00,
2013-01-25 00:10:00,23.7,8.6,30.18,North,351,3.0,5.0,52,0.00,OVC,,0.00,WeatherDisplay:10.37,2013-01-25 06:10:00,
2013-01-25 00:15:00,23.7,8.6,30.18,NNW,337,5.0,7.0,52,0.00,OVC,,0.00,WeatherDisplay:10.37,2013-01-25 06:15:00,
2013-01-25 00:20:00,23.7,9.0,30.18,NNW,332,5.0,6.0,53,0.00,OVC,,0.00,WeatherDisplay:10.37,2013-01-25 06:20:00,
2013-01-25 00:30:00,23.6,9.0,30.18,NNW,335,3.0,6.0,53,0.00,OVC,,0.00,WeatherDisplay:10.37,2013-01-25 06:30:00,
2013-01-25 00:40:00,23.4,8.8,30.18,NNW,335,6.0,7.0,53,0.00,OVC,,0.00,WeatherDisplay:10.37,2013-01-25 06:40:00,
2013-01-25 00:45:00,23.4,8.8,30.18,NNW,335,6.0,7.0,53,0.00,OVC,,0.00,WeatherDisplay:10.37,2013-01-25 06:45:00,
2013-01-25 00:50:00,23.4,9.2,30.17,NNW,341,5.0,7.0,54,0.00,OVC,,0.00,WeatherDisplay:10.37,2013-01-25 06:50:00,
2013-01-25 00:55:00,23.3,8.7,30.18,NNW,345,6.0,7.0,53,0.00,OVC,,0.00,WeatherDisplay:10.37,2013-01-25 06:55:00,
2013-01-25 01:00:00,23.3,9.1,30.17,NNW,339,5.0,7.0,54,0.00,OVC,,0.00,WeatherDisplay:10.37,2013-01-25 07:00:00,
2013-01-25 01:10:00,23.2,9.0,30.17,North,349,5.0,7.0,54,0.00,OVC,,0.00,WeatherDisplay:10.37,2013-01-25 07:10:00,
2013-01-25 01:15:00,23.2,9.0,30.18,NNW,346,6.0,8.0,54,0.00,OVC,,0.00,WeatherDisplay:10.37,2013-01-25 07:15:00,
2013-01-25 01:20:00,23.2,9.0,30.19,NNW,340,6.0,9.0,54,0.00,OVC,,0.00,WeatherDisplay:10.37,2013-01-25 07:20:00,
2013-01-25 01:25:00,23.3,9.1,30.19,NNW,340,5.0,8.0,54,0.00,OVC,,0.00,WeatherDisplay:10.37,2013-01-25 07:25:00,
2013-01-25 01:30:00,23.2,9.0,30.18,NNW,340,6.0,9.0,54,0.00,OVC,,0.00,WeatherDisplay:10.37,2013-01-25 07:30:00,
2013-01-25 01:40:00,23.2,9.4,30.18,NNW,342,5.0,7.0,55,0.00,OVC,,0.00,WeatherDisplay:10.37,2013-01-25 07:40:00,
2013-01-25 01:45:00,23.1,8.9,30.17,North,350,5.0,7.0,54,0.00,OVC,,0.00,WeatherDisplay:10.37,2013-01-25 07:45:00,
2013-01-25 01:50:00,23.0,8.8,30.17,North,353,3.0,6.0,54,0.00,OVC,,0.00,WeatherDisplay:10.37,2013-01-25 07:50:00,
2013-01-25 01:55:00,23.0,9.2,30.17,North,358,3.0,6.0,55,0.00,OVC,,0.00,WeatherDisplay:10.37,2013-01-25 07:55:00,
2013-01-25 02:00:00,23.0,9.2,30.17,North,7,3.0,5.0,55,0.00,OVC,,0.00,WeatherDisplay:10.37,2013-01-25 08:00:00,
2013-01-25 02:10:00,22.9,8.7,30.17,NNE,14,2.0,5.0,54,0.00,OVC,,0.00,WeatherDisplay:10.37,2013-01-25 08:10:00,
2013-01-25 02:15:00,22.9,8.7,30.17,NNE,14,2.0,4.0,54,0.00,OVC,,0.00,WeatherDisplay:10.37,2013-01-25 08:15:00,
2013-01-25 02:20:00,22.9,8.7,30.17,North,356,3.0,6.0,54,0.00,OVC,,0.00,WeatherDisplay:10.37,2013-01-25 08:20:00,
2013-01-25 02:25:00,22.9,9.1,30.18,NNW,342,3.0,5.0,55,0.00,OVC,,0.00,WeatherDisplay:10.37,2013-01-25 08:25:00,
2013-01-25 02:30:00,22.9,9.1,30.17,NNW,341,1.0,5.0,55,0.00,OVC,,0.00,WeatherDisplay:10.37,2013-01-25 08:30:00,
2013-01-25 02:40:00,22.9,9.1,30.17,NNW,341,3.0,5.0,55,0.00,OVC,,0.00,WeatherDisplay:10.37,2013-01-25 08:40:00,
2013-01-25 02:45:00,22.9,9.1,30.17,NNW,341,3.0,4.0,55,0.00,OVC,,0.00,WeatherDisplay:10.37,2013-01-25 08:45:00,
2013-01-25 02:50:00,22.9,9.1,30.17,NNW,341,3.0,5.0,55,0.00,OVC,,0.00,WeatherDisplay:10.37,2013-01-25 08:50:00,
2013-01-25 02:55:00,22.9,9.1,30.17,NNW,339,3.0,6.0,55,0.00,OVC,,0.00,WeatherDisplay:10.37,2013-01-25 08:55:00,
2013-01-25 03:00:00,22.9,9.1,30.17,NNW,342,1.0,4.0,55,0.00,OVC,,0.00,WeatherDisplay:10.37,2013-01-25 09:00:00,
2013-01-25 03:10:00,22.8,9.0,30.15,North,350,1.0,3.0,55,0.00,OVC,,0.00,WeatherDisplay:10.37,2013-01-25 09:10:00,
2013-01-25 03:15:00,22.7,8.9,30.14,North,350,0.0,2.0,55,0.00,OVC,,0.00,WeatherDisplay:10.37,2013-01-25 09:15:00,
2013-01-25 03:20:00,22.6,8.5,30.15,North,350,0.0,3.0,54,0.00,OVC,,0.00,WeatherDisplay:10.37,2013-01-25 09:20:00,
2013-01-25 03:25:00,22.6,8.8,30.14,North,350,1.0,2.0,55,0.00,OVC,,0.00,WeatherDisplay:10.37,2013-01-25 09:25:00,
2013-01-25 03:30:00,22.5,9.1,30.14,North,350,0.0,2.0,56,0.00,OVC,,0.00,WeatherDisplay:10.37,2013-01-25 09:30:00,
2013-01-25 03:40:00,22.2,8.9,30.14,North,350,0.0,1.0,56,0.00,OVC,,0.00,WeatherDisplay:10.37,2013-01-25 09:40:00,
2013-01-25 03:45:00,22.1,9.2,30.15,North,350,2.0,3.0,57,0.00,OVC,,0.00,WeatherDisplay:10.37,2013-01-25 09:45:00,
2013-01-25 03:50:00,22.0,9.1,30.15,North,350,2.0,3.0,57,0.00,OVC,,0.00,WeatherDisplay:10.37,2013-01-25 09:50:00,
2013-01-25 03:55:00,21.9,9.0,30.15,North,350,0.0,2.0,57,0.00,OVC,,0.00,WeatherDisplay:10.37,2013-01-25 09:55:00,
2013-01-25 04:00:00,21.7,8.8,30.15,North,350,1.0,3.0,57,0.00,OVC,,0.00,WeatherDisplay:10.37,2013-01-25 10:00:00,
2013-01-25 04:10:00,21.6,8.7,30.14,North,350,0.0,0.0,57,0.00,CLR,,0.00,WeatherDisplay:10.37,2013-01-25 10:10:00,
2013-01-25 04:15:00,21.4,8.5,30.14,North,350,0.0,0.0,57,0.00,CLR,,0.00,WeatherDisplay:10.37,2013-01-25 10:15:00,
2013-01-25 04:20:00,21.3,8.8,30.14,North,350,0.0,0.0,58,0.00,CLR,,0.00,WeatherDisplay:10.37,2013-01-25 10:20:00,
2013-01-25 04:25:00,21.2,8.7,30.14,North,350,0.0,0.0,58,0.00,CLR,,0.00,WeatherDisplay:10.37,2013-01-25 10:25:00,
2013-01-25 04:30:00,21.1,8.6,30.14,North,350,0.0,0.0,58,0.00,CLR,,0.00,WeatherDisplay:10.37,2013-01-25 10:30:00,
2013-01-25 04:40:00,20.7,8.7,30.14,North,350,0.0,0.0,59,0.00,CLR,,0.00,WeatherDisplay:10.37,2013-01-25 10:40:00,
2013-01-25 04:45:00,20.7,8.6,30.14,North,350,0.0,0.0,59,0.00,CLR,,0.00,WeatherDisplay:10.37,2013-01-25 10:45:00,
2013-01-25 04:50:00,20.8,8.7,30.14,North,350,0.0,0.0,59,0.00,CLR,,0.00,WeatherDisplay:10.37,2013-01-25 10:50:00,
2013-01-25 04:55:00,20.8,8.7,30.14,North,350,0.0,0.0,59,0.00,CLR,,0.00,WeatherDisplay:10.37,2013-01-25 10:55:00,
2013-01-25 05:00:00,20.6,8.5,30.14,North,350,1.0,1.0,59,0.00,CLR,,0.00,WeatherDisplay:10.37,2013-01-25 11:00:00,
2013-01-25 05:10:00,20.2,8.5,30.14,North,350,0.0,0.0,60,0.00,CLR,,0.00,WeatherDisplay:10.37,2013-01-25 11:10:00,
2013-01-25 05:15:00,20.1,8.4,30.13,North,350,0.0,1.0,60,0.00,CLR,,0.00,WeatherDisplay:10.37,2013-01-25 11:15:00,
2013-01-25 05:20:00,20.2,8.5,30.13,North,350,0.0,1.0,60,0.00,CLR,,0.00,WeatherDisplay:10.37,2013-01-25 11:20:00,
2013-01-25 05:25:00,20.2,8.5,30.13,North,350,0.0,1.0,60,0.00,CLR,,0.00,WeatherDisplay:10.37,2013-01-25 11:25:00,
2013-01-25 05:30:00,20.3,8.6,30.13,North,350,1.0,2.0,60,0.00,CLR,,0.00,WeatherDisplay:10.37,2013-01-25 11:30:00,
2013-01-25 05:40:00,20.4,8.7,30.13,North,350,1.0,2.0,60,0.00,CLR,,0.00,WeatherDisplay:10.37,2013-01-25 11:40:00,
2013-01-25 05:45:00,20.3,8.6,30.13,North,350,0.0,2.0,60,0.00,CLR,,0.00,WeatherDisplay:10.37,2013-01-25 11:45:00,
2013-01-25 05:50:00,20.2,8.5,30.13,North,350,1.0,2.0,60,0.00,CLR,,0.00,WeatherDisplay:10.37,2013-01-25 11:50:00,
2013-01-25 06:00:00,19.8,8.9,30.14,North,350,1.0,2.0,62,0.00,CLR,,0.00,WeatherDisplay:10.37,2013-01-25 12:00:00,
2013-01-25 06:10:00,19.8,8.9,30.14,North,350,1.0,2.0,62,0.00,CLR,,0.00,WeatherDisplay:10.37,2013-01-25 12:10:00,
2013-01-25 06:15:00,20.0,9.0,30.15,NW,323,2.0,3.0,62,0.00,CLR,,0.00,WeatherDisplay:10.37,2013-01-25 12:15:00,
2013-01-25 06:20:00,20.1,9.2,30.15,West,262,1.0,3.0,62,0.00,CLR,,0.00,WeatherDisplay:10.37,2013-01-25 12:20:00,
2013-01-25 06:25:00,20.2,8.9,30.15,WSW,247,2.0,3.0,61,0.00,CLR,,0.00,WeatherDisplay:10.37,2013-01-25 12:25:00,
2013-01-25 06:30:00,20.1,8.8,30.16,WSW,247,2.0,3.0,61,0.00,CLR,,0.00,WeatherDisplay:10.37,2013-01-25 12:30:00,
2013-01-25 06:40:00,19.9,9.0,30.16,WSW,247,2.0,4.0,62,0.00,CLR,,0.00,WeatherDisplay:10.37,2013-01-25 12:40:00,
2013-01-25 06:45:00,19.9,8.6,30.16,WSW,247,1.0,3.0,61,0.00,CLR,,0.00,WeatherDisplay:10.37,2013-01-25 12:45:00,
2013-01-25 06:50:00,19.9,9.0,30.17,WSW,247,1.0,2.0,62,0.00,CLR,,0.00,WeatherDisplay:10.37,2013-01-25 12:50:00,
2013-01-25 06:55:00,19.8,8.9,30.17,WSW,247,2.0,4.0,62,0.00,CLR,,0.00,WeatherDisplay:10.37,2013-01-25 12:55:00,
2013-01-25 07:00:00,19.9,9.0,30.17,WSW,247,3.0,5.0,62,0.00,CLR,,0.00,WeatherDisplay:10.37,2013-01-25 13:00:00,
2013-01-25 07:10:00,20.1,9.2,30.17,WSW,248,2.0,4.0,62,0.00,CLR,,0.00,WeatherDisplay:10.37,2013-01-25 13:10:00,
2013-01-25 07:15:00,20.1,9.2,30.18,WSW,249,2.0,5.0,62,0.00,CLR,,0.00,WeatherDisplay:10.37,2013-01-25 13:15:00,
2013-01-25 07:20:00,20.1,9.2,30.17,WSW,250,2.0,5.0,62,0.00,CLR,,0.00,WeatherDisplay:10.37,2013-01-25 13:20:00,
2013-01-25 07:25:00,19.9,9.0,30.17,WSW,250,3.0,4.0,62,0.00,CLR,,0.00,WeatherDisplay:10.37,2013-01-25 13:25:00,
2013-01-25 07:30:00,19.9,9.3,30.17,WSW,250,2.0,4.0,63,0.00,CLR,,0.00,WeatherDisplay:10.37,2013-01-25 13:30:00,
2013-01-25 07:40:00,19.6,9.7,30.17,WSW,250,3.0,5.0,65,0.00,CLR,,0.00,WeatherDisplay:10.37,2013-01-25 13:40:00,
2013-01-25 07:45:00,19.8,10.3,30.17,WSW,245,3.0,5.0,66,0.00,CLR,,0.00,WeatherDisplay:10.37,2013-01-25 13:45:00,
2013-01-25 07:50:00,19.5,9.6,30.17,SW,234,3.0,6.0,65,0.00,CLR,,0.00,WeatherDisplay:10.37,2013-01-25 13:50:00,
2013-01-25 07:55:00,19.3,9.4,30.17,SW,229,2.0,5.0,65,0.00,CLR,,0.00,WeatherDisplay:10.37,2013-01-25 13:55:00,
2013-01-25 08:00:00,19.4,9.9,30.17,SW,236,3.0,6.0,66,0.00,CLR,,0.00,WeatherDisplay:10.37,2013-01-25 14:00:00,
2013-01-25 08:10:00,20.1,10.9,30.18,WSW,248,3.0,5.0,67,0.00,CLR,,0.00,WeatherDisplay:10.37,2013-01-25 14:10:00,
2013-01-25 08:15:00,20.3,11.1,30.18,WSW,246,2.0,5.0,67,0.00,CLR,,0.00,WeatherDisplay:10.37,2013-01-25 14:15:00,
2013-01-25 08:20:00,20.6,11.1,30.18,WSW,250,2.0,5.0,66,0.00,CLR,,0.00,WeatherDisplay:10.37,2013-01-25 14:20:00,
2013-01-25 08:30:00,21.4,11.4,30.18,WSW,252,2.0,5.0,65,0.00,CLR,,0.00,WeatherDisplay:10.37,2013-01-25 14:30:00,
2013-01-25 08:40:00,22.3,11.9,30.18,WSW,251,2.0,7.0,64,0.00,CLR,,0.00,WeatherDisplay:10.37,2013-01-25 14:40:00,
2013-01-25 08:45:00,22.7,12.0,30.18,WSW,254,2.0,7.0,63,0.00,CLR,,0.00,WeatherDisplay:10.37,2013-01-25 14:45:00,
2013-01-25 08:50:00,23.1,12.0,30.18,West,262,3.0,6.0,62,0.00,CLR,,0.00,WeatherDisplay:10.37,2013-01-25 14:50:00,
2013-01-25 09:00:00,24.1,13.0,30.18,West,270,5.0,7.0,62,0.00,CLR,,0.00,WeatherDisplay:10.37,2013-01-25 15:00:00,
2013-01-25 09:05:00,24.7,12.4,30.18,West,274,5.0,9.0,59,0.00,CLR,,0.00,WeatherDisplay:10.37,2013-01-25 15:05:00,
2013-01-25 09:10:00,25.1,12.4,30.18,West,269,5.0,7.0,58,0.00,CLR,,0.00,WeatherDisplay:10.37,2013-01-25 15:10:00,
2013-01-25 09:15:00,25.7,13.3,30.18,West,269,5.0,7.0,59,0.00,CLR,,0.00,WeatherDisplay:10.37,2013-01-25 15:15:00,
2013-01-25 09:20:00,26.2,13.4,30.18,West,270,5.0,9.0,58,0.00,CLR,,0.00,WeatherDisplay:10.37,2013-01-25 15:20:00,
2013-01-25 09:25:00,26.5,13.7,30.17,West,276,7.0,10.0,58,0.00,CLR,,0.00,WeatherDisplay:10.37,2013-01-25 15:25:00,
2013-01-25 09:30:00,26.9,14.1,30.18,West,279,6.0,9.0,58,0.00,CLR,,0.00,WeatherDisplay:10.37,2013-01-25 15:30:00,
2013-01-25 09:40:00,27.6,14.3,30.18,West,277,6.0,9.0,57,0.00,CLR,,0.00,WeatherDisplay:10.37,2013-01-25 15:40:00,
2013-01-25 09:45:00,27.9,14.3,30.18,West,281,8.0,12.0,56,0.00,CLR,,0.00,WeatherDisplay:10.37,2013-01-25 15:45:00,
2013-01-25 09:50:00,28.4,14.7,30.18,WNW,284,7.0,10.0,56,0.00,CLR,,0.00,WeatherDisplay:10.37,2013-01-25 15:50:00,
2013-01-25 09:55:00,28.9,14.7,30.18,WNW,286,7.0,10.0,55,0.00,CLR,,0.00,WeatherDisplay:10.37,2013-01-25 15:55:00,
2013-01-25 10:00:00,29.3,14.3,30.18,WNW,289,8.0,12.0,53,0.00,CLR,,0.00,WeatherDisplay:10.37,2013-01-25 16:00:00,
2013-01-25 10:10:00,29.9,14.4,30.19,WNW,290,7.0,13.0,52,0.00,CLR,,0.00,WeatherDisplay:10.37,2013-01-25 16:10:00,
2013-01-25 10:15:00,30.0,14.0,30.18,WNW,292,7.0,13.0,51,0.00,CLR,,0.00,WeatherDisplay:10.37,2013-01-25 16:15:00,
2013-01-25 10:20:00,30.2,14.7,30.19,WNW,293,7.0,12.0,52,0.00,CLR,,0.00,WeatherDisplay:10.37,2013-01-25 16:20:00,
2013-01-25 10:25:00,30.6,14.6,30.19,WNW,294,6.0,10.0,51,0.00,CLR,,0.00,WeatherDisplay:10.37,2013-01-25 16:25:00,
2013-01-25 10:30:00,31.0,15.0,30.20,WNW,294,7.0,10.0,51,0.00,CLR,,0.00,WeatherDisplay:10.37,2013-01-25 16:30:00,
2013-01-25 10:40:00,31.7,15.2,30.19,WNW,288,7.0,10.0,50,0.00,CLR,,0.00,WeatherDisplay:10.37,2013-01-25 16:40:00,
2013-01-25 10:45:00,32.0,15.4,30.19,WNW,292,8.0,12.0,50,0.00,CLR,,0.00,WeatherDisplay:10.37,2013-01-25 16:45:00,
2013-01-25 10:50:00,32.4,15.8,30.19,WNW,300,5.0,12.0,50,0.00,CLR,,0.00,WeatherDisplay:10.37,2013-01-25 16:50:00,
2013-01-25 10:55:00,32.8,15.8,30.19,NW,304,5.0,9.0,49,0.00,CLR,,0.00,WeatherDisplay:10.37,2013-01-25 16:55:00,
2013-01-25 11:00:00,33.1,16.0,30.19,WNW,299,5.0,10.0,49,0.00,CLR,,0.00,WeatherDisplay:10.37,2013-01-25 17:00:00,
2013-01-25 11:05:00,33.6,16.0,30.20,WNW,297,6.0,12.0,48,0.00,CLR,,0.00,WeatherDisplay:10.37,2013-01-25 17:05:00,
2013-01-25 11:10:00,34.0,16.3,30.19,WNW,295,5.0,12.0,48,0.00,CLR,,0.00,WeatherDisplay:10.37,2013-01-25 17:10:00,
2013-01-25 11:15:00,34.4,16.3,30.19,WNW,291,5.0,8.0,47,0.00,CLR,,0.00,WeatherDisplay:10.37,2013-01-25 17:15:00,
2013-01-25 11:20:00,35.0,16.3,30.19,WNW,298,8.0,12.0,46,0.00,CLR,,0.00,WeatherDisplay:10.37,2013-01-25 17:20:00,
2013-01-25 11:30:00,36.0,16.2,30.19,NW,316,6.0,8.0,44,0.00,CLR,,0.00,WeatherDisplay:10.37,2013-01-25 17:30:00,
2013-01-25 11:40:00,36.1,16.3,30.19,NW,307,6.0,12.0,44,0.00,CLR,,0.00,WeatherDisplay:10.37,2013-01-25 17:40:00,
2013-01-25 11:45:00,36.3,16.4,30.19,NW,307,5.0,10.0,44,0.00,CLR,,0.00,WeatherDisplay:10.37,2013-01-25 17:45:00,
2013-01-25 11:50:00,36.9,17.0,30.19,WNW,301,8.0,12.0,44,0.00,CLR,,0.00,WeatherDisplay:10.37,2013-01-25 17:50:00,
2013-01-25 11:55:00,37.2,16.8,30.19,NW,304,6.0,9.0,43,0.00,CLR,,0.00,WeatherDisplay:10.37,2013-01-25 17:55:00,
2013-01-25 12:00:00,37.5,17.0,30.19,WNW,301,6.0,9.0,43,0.00,CLR,,0.00,WeatherDisplay:10.37,2013-01-25 18:00:00,
2013-01-25 12:05:00,37.7,16.6,30.19,WNW,293,6.0,10.0,42,0.00,CLR,,0.00,WeatherDisplay:10.37,2013-01-25 18:05:00,
2013-01-25 12:10:00,37.8,16.7,30.19,WNW,295,6.0,9.0,42,0.00,CLR,,0.00,WeatherDisplay:10.37,2013-01-25 18:10:00,
2013-01-25 12:15:00,38.3,16.7,30.18,WNW,297,3.0,7.0,41,0.00,CLR,,0.00,WeatherDisplay:10.37,2013-01-25 18:15:00,
2013-01-25 12:20:00,38.7,17.6,30.18,WNW,296,3.0,7.0,42,0.00,CLR,,0.00,WeatherDisplay:10.37,2013-01-25 18:20:00,
2013-01-25 12:25:00,39.1,17.3,30.18,WNW,294,5.0,8.0,41,0.00,CLR,,0.00,WeatherDisplay:10.37,2013-01-25 18:25:00,
2013-01-25 12:30:00,39.3,18.1,30.18,WNW,288,2.0,7.0,42,0.00,CLR,,0.00,WeatherDisplay:10.37,2013-01-25 18:30:00,
2013-01-25 12:40:00,40.3,18.4,30.17,WNW,295,2.0,7.0,41,0.00,CLR,,0.00,WeatherDisplay:10.37,2013-01-25 18:40:00,
2013-01-25 12:45:00,41.0,18.5,30.17,WNW,290,5.0,8.0,40,0.00,CLR,,0.00,WeatherDisplay:10.37,2013-01-25 18:45:00,
2013-01-25 12:50:00,41.1,18.0,30.17,WNW,286,2.0,8.0,39,0.00,CLR,,0.00,WeatherDisplay:10.37,2013-01-25 18:50:00,
2013-01-25 13:00:00,41.5,18.4,30.16,WNW,294,3.0,8.0,39,0.00,CLR,,0.00,WeatherDisplay:10.37,2013-01-25 19:00:00,
2013-01-25 13:05:00,41.9,18.8,30.16,WNW,301,2.0,6.0,39,0.00,CLR,,0.00,WeatherDisplay:10.37,2013-01-25 19:05:00,
2013-01-25 13:10:00,42.6,18.7,30.16,WNW,283,3.0,9.0,38,0.00,CLR,,0.00,WeatherDisplay:10.37,2013-01-25 19:10:00,
2013-01-25 13:15:00,42.9,18.4,30.16,WNW,286,6.0,10.0,37,0.00,CLR,,0.00,WeatherDisplay:10.37,2013-01-25 19:15:00,
2013-01-25 13:20:00,43.0,19.1,30.16,WNW,299,5.0,10.0,38,0.00,CLR,,0.00,WeatherDisplay:10.37,2013-01-25 19:20:00,
2013-01-25 13:25:00,43.1,19.2,30.17,WNW,294,5.0,8.0,38,0.00,CLR,,0.00,WeatherDisplay:10.37,2013-01-25 19:25:00,
2013-01-25 13:30:00,43.3,19.3,30.16,WNW,293,5.0,10.0,38,0.00,CLR,,0.00,WeatherDisplay:10.37,2013-01-25 19:30:00,
2013-01-25 13:40:00,43.7,19.1,30.16,WNW,299,3.0,9.0,37,0.00,CLR,,0.00,WeatherDisplay:10.37,2013-01-25 19:40:00,
2013-01-25 13:45:00,43.9,19.3,30.16,NW,306,6.0,10.0,37,0.00,CLR,,0.00,WeatherDisplay:10.37,2013-01-25 19:45:00,
2013-01-25 13:50:00,44.3,19.0,30.15,NW,317,6.0,8.0,36,0.00,CLR,,0.00,WeatherDisplay:10.37,2013-01-25 19:50:00,
2013-01-25 14:00:00,44.7,18.7,30.15,NW,307,6.0,10.0,35,0.00,CLR,,0.00,WeatherDisplay:10.37,2013-01-25 20:00:00,
2013-01-25 14:10:00,45.2,19.2,30.14,WNW,292,1.0,4.0,35,0.00,CLR,,0.00,WeatherDisplay:10.37,2013-01-25 20:10:00,
2013-01-25 14:15:00,46.0,18.5,30.15,West,278,6.0,9.0,33,0.00,CLR,,0.00,WeatherDisplay:10.37,2013-01-25 20:15:00,
2013-01-25 14:20:00,45.6,18.1,30.14,NW,304,3.0,8.0,33,0.00,CLR,,0.00,WeatherDisplay:10.37,2013-01-25 20:20:00,
2013-01-25 14:30:00,46.0,18.5,30.14,WNW,300,6.0,9.0,33,0.00,CLR,,0.00,WeatherDisplay:10.37,2013-01-25 20:30:00,
2013-01-25 14:40:00,46.1,18.5,30.14,WNW,299,5.0,6.0,33,0.00,CLR,,0.00,WeatherDisplay:10.37,2013-01-25 20:40:00,
2013-01-25 14:45:00,46.1,18.6,30.14,WNW,289,5.0,7.0,33,0.00,CLR,,0.00,WeatherDisplay:10.37,2013-01-25 20:45:00,
2013-01-25 14:50:00,46.0,17.7,30.14,NW,308,3.0,8.0,32,0.00,CLR,,0.00,WeatherDisplay:10.37,2013-01-25 20:50:00,
2013-01-25 15:00:00,46.6,18.3,30.13,NW,326,6.0,8.0,32,0.00,CLR,,0.00,WeatherDisplay:10.37,2013-01-25 21:00:00,
2013-01-25 15:10:00,46.4,18.8,30.13,NW,306,3.0,7.0,33,0.00,CLR,,0.00,WeatherDisplay:10.37,2013-01-25 21:10:00,
2013-01-25 15:15:00,46.7,18.3,30.14,WNW,300,3.0,8.0,32,0.00,CLR,,0.00,WeatherDisplay:10.37,2013-01-25 21:15:00,
2013-01-25 15:20:00,46.6,18.3,30.14,WNW,297,3.0,7.0,32,0.00,CLR,,0.00,WeatherDisplay:10.37,2013-01-25 21:20:00,
2013-01-25 15:25:00,46.8,17.7,30.13,WNW,303,5.0,7.0,31,0.00,CLR,,0.00,WeatherDisplay:10.37,2013-01-25 21:25:00,
2013-01-25 15:30:00,46.8,18.5,30.13,WNW,303,2.0,6.0,32,0.00,CLR,,0.00,WeatherDisplay:10.37,2013-01-25 21:30:00,
2013-01-25 15:35:00,46.8,18.5,30.13,NW,304,5.0,7.0,32,0.00,CLR,,0.00,WeatherDisplay:10.37,2013-01-25 21:35:00,
2013-01-25 15:40:00,46.7,18.4,30.14,NW,309,3.0,6.0,32,0.00,CLR,,0.00,WeatherDisplay:10.37,2013-01-25 21:40:00,
2013-01-25 15:45:00,46.7,18.4,30.14,WNW,303,2.0,6.0,32,0.00,CLR,,0.00,WeatherDisplay:10.37,2013-01-25 21:45:00,
2013-01-25 15:50:00,46.7,18.4,30.14,WNW,293,2.0,4.0,32,0.00,CLR,,0.00,WeatherDisplay:10.37,2013-01-25 21:50:00,
2013-01-25 15:55:00,46.5,18.2,30.14,WNW,293,3.0,4.0,32,0.00,CLR,,0.00,WeatherDisplay:10.37,2013-01-25 21:55:00,
2013-01-25 16:00:00,46.5,18.9,30.14,WNW,293,1.0,4.0,33,0.00,CLR,,0.00,WeatherDisplay:10.37,2013-01-25 22:00:00,
2013-01-25 16:10:00,46.4,18.8,30.14,WNW,293,2.0,4.0,33,0.00,CLR,,0.00,WeatherDisplay:10.37,2013-01-25 22:10:00,
2013-01-25 16:15:00,46.4,18.8,30.15,WNW,293,2.0,3.0,33,0.00,CLR,,0.00,WeatherDisplay:10.37,2013-01-25 22:15:00,
2013-01-25 16:20:00,46.4,18.8,30.15,WNW,293,1.0,3.0,33,0.00,CLR,,0.00,WeatherDisplay:10.37,2013-01-25 22:20:00,
2013-01-25 16:25:00,46.4,18.8,30.15,WNW,293,2.0,4.0,33,0.00,CLR,,0.00,WeatherDisplay:10.37,2013-01-25 22:25:00,
2013-01-25 16:30:00,46.3,18.7,30.15,WNW,293,1.0,3.0,33,0.00,CLR,,0.00,WeatherDisplay:10.37,2013-01-25 22:30:00,
2013-01-25 16:35:00,46.2,18.6,30.15,WNW,293,1.0,3.0,33,0.00,CLR,,0.00,WeatherDisplay:10.37,2013-01-25 22:35:00,
2013-01-25 16:40:00,46.1,18.6,30.15,WNW,293,0.0,2.0,33,0.00,CLR,,0.00,WeatherDisplay:10.37,2013-01-25 22:40:00,
2013-01-25 16:45:00,46.1,18.5,30.15,WNW,293,0.0,1.0,33,0.00,CLR,,0.00,WeatherDisplay:10.37,2013-01-25 22:45:00,
2013-01-25 16:50:00,46.0,18.4,30.15,WNW,293,1.0,2.0,33,0.00,CLR,,0.00,WeatherDisplay:10.37,2013-01-25 22:50:00,
2013-01-25 17:00:00,44.9,19.5,30.14,SW,225,3.0,5.0,36,0.00,CLR,,0.00,WeatherDisplay:10.37,2013-01-25 23:00:00,
2013-01-25 17:10:00,43.7,19.1,30.14,SW,221,3.0,5.0,37,0.00,CLR,,0.00,WeatherDisplay:10.37,2013-01-25 23:10:00,
2013-01-25 17:15:00,43.3,19.4,30.14,SW,221,3.0,5.0,38,0.00,CLR,,0.00,WeatherDisplay:10.37,2013-01-25 23:15:00,
2013-01-25 17:20:00,43.1,19.2,30.14,SW,221,3.0,5.0,38,0.00,CLR,,0.00,WeatherDisplay:10.37,2013-01-25 23:20:00,
2013-01-25 17:30:00,42.6,19.3,30.15,SW,221,3.0,6.0,39,0.00,CLR,,0.00,WeatherDisplay:10.37,2013-01-25 23:30:00,
2013-01-25 17:35:00,42.3,19.1,30.15,SW,221,5.0,6.0,39,0.00,CLR,,0.00,WeatherDisplay:10.37,2013-01-25 23:35:00,
2013-01-25 17:40:00,42.0,18.8,30.15,SW,221,5.0,6.0,39,0.00,CLR,,0.00,WeatherDisplay:10.37,2013-01-25 23:40:00,
2013-01-25 17:45:00,41.7,19.1,30.15,SW,221,3.0,6.0,40,0.00,CLR,,0.00,WeatherDisplay:10.37,2013-01-25 23:45:00,
2013-01-25 17:50:00,41.3,18.8,30.15,SW,221,2.0,4.0,40,0.00,CLR,,0.00,WeatherDisplay:10.37,2013-01-25 23:50:00,
2013-01-25 17:55:00,40.9,19.0,30.15,SW,221,2.0,4.0,41,0.00,CLR,,0.00,WeatherDisplay:10.37,2013-01-25 23:55:00,
2013-01-25 18:00:00,40.8,18.9,30.15,SW,221,2.0,4.0,41,0.00,CLR,,0.00,WeatherDisplay:10.37,2013-01-26 00:00:00,
2013-01-25 18:10:00,41.0,19.1,30.15,SW,221,2.0,4.0,41,0.00,CLR,,0.00,WeatherDisplay:10.37,2013-01-26 00:10:00,
2013-01-25 18:15:00,41.0,19.1,30.16,SW,221,2.0,3.0,41,0.00,CLR,,0.00,WeatherDisplay:10.37,2013-01-26 00:15:00,
2013-01-25 18:20:00,40.7,18.8,30.16,SW,221,1.0,3.0,41,0.00,CLR,,0.00,WeatherDisplay:10.37,2013-01-26 00:20:00,
2013-01-25 18:25:00,40.3,19.0,30.15,SW,221,1.0,3.0,42,0.00,CLR,,0.00,WeatherDisplay:10.37,2013-01-26 00:25:00,
2013-01-25 18:30:00,40.0,18.7,30.16,SW,221,1.0,3.0,42,0.00,CLR,,0.00,WeatherDisplay:10.37,2013-01-26 00:30:00,
2013-01-25 18:40:00,40.4,19.1,30.16,SW,221,1.0,4.0,42,0.00,CLR,,0.00,WeatherDisplay:10.37,2013-01-26 00:40:00,
2013-01-25 18:45:00,40.2,18.9,30.16,SW,221,1.0,2.0,42,0.00,CLR,,0.00,WeatherDisplay:10.37,2013-01-26 00:45:00,
2013-01-25 18:50:00,40.3,19.0,30.16,SW,221,1.0,3.0,42,0.00,CLR,,0.00,WeatherDisplay:10.37,2013-01-26 00:50:00,
2013-01-25 18:55:00,40.3,19.0,30.16,SW,221,2.0,3.0,42,0.00,CLR,,0.00,WeatherDisplay:10.37,2013-01-26 00:55:00,
2013-01-25 19:00:00,40.4,18.5,30.16,SW,221,2.0,3.0,41,0.00,CLR,,0.00,WeatherDisplay:10.37,2013-01-26 01:00:00,
2013-01-25 19:10:00,40.1,18.8,30.16,SW,221,2.0,3.0,42,0.00,CLR,,0.00,WeatherDisplay:10.37,2013-01-26 01:10:00,
2013-01-25 19:15:00,40.0,18.7,30.17,SW,221,2.0,3.0,42,0.00,CLR,,0.00,WeatherDisplay:10.37,2013-01-26 01:15:00,
2013-01-25 19:20:00,40.1,18.8,30.17,SW,221,5.0,5.0,42,0.00,CLR,,0.00,WeatherDisplay:10.37,2013-01-26 01:20:00,
2013-01-25 19:30:00,40.9,19.0,30.17,SW,221,5.0,6.0,41,0.00,CLR,,0.00,WeatherDisplay:10.37,2013-01-26 01:30:00,
2013-01-25 19:40:00,40.8,18.9,30.17,SW,221,5.0,6.0,41,0.00,CLR,,0.00,WeatherDisplay:10.37,2013-01-26 01:40:00,
2013-01-25 19:45:00,40.7,18.8,30.17,SW,221,5.0,5.0,41,0.00,CLR,,0.00,WeatherDisplay:10.37,2013-01-26 01:45:00,
2013-01-25 19:50:00,40.6,18.7,30.17,SW,221,5.0,5.0,41,0.00,CLR,,0.00,WeatherDisplay:10.37,2013-01-26 01:50:00,
2013-01-25 20:00:00,40.0,18.7,30.17,SW,221,2.0,3.0,42,0.00,CLR,,0.00,WeatherDisplay:10.37,2013-01-26 02:00:00,
2013-01-25 20:10:00,39.6,18.9,30.18,SW,221,1.0,3.0,43,0.00,CLR,,0.00,WeatherDisplay:10.37,2013-01-26 02:10:00,
2013-01-25 20:15:00,39.7,18.5,30.18,SW,221,2.0,5.0,42,0.00,CLR,,0.00,WeatherDisplay:10.37,2013-01-26 02:15:00,
2013-01-25 20:20:00,40.6,19.3,30.18,SW,221,5.0,6.0,42,0.00,CLR,,0.00,WeatherDisplay:10.37,2013-01-26 02:20:00,
2013-01-25 20:30:00,40.9,19.0,30.18,SW,221,2.0,5.0,41,0.00,CLR,,0.00,WeatherDisplay:10.37,2013-01-26 02:30:00,
2013-01-25 20:40:00,41.0,19.1,30.18,SW,221,3.0,5.0,41,0.00,CLR,,0.00,WeatherDisplay:10.37,2013-01-26 02:40:00,
2013-01-25 20:45:00,41.3,19.3,30.18,SW,221,3.0,5.0,41,0.00,CLR,,0.00,WeatherDisplay:10.37,2013-01-26 02:45:00,
2013-01-25 20:50:00,41.2,19.3,30.18,SW,222,3.0,5.0,41,0.00,CLR,,0.00,WeatherDisplay:10.37,2013-01-26 02:50:00,
2013-01-25 20:55:00,41.1,19.2,30.18,SW,223,2.0,5.0,41,0.00,CLR,,0.00,WeatherDisplay:10.37,2013-01-26 02:55:00,
2013-01-25 21:00:00,41.2,19.2,30.18,SW,223,3.0,5.0,41,0.00,CLR,,0.00,WeatherDisplay:10.37,2013-01-26 03:00:00,
2013-01-25 21:05:00,41.0,19.1,30.18,SW,223,3.0,5.0,41,0.00,CLR,,0.00,WeatherDisplay:10.37,2013-01-26 03:05:00,
2013-01-25 21:10:00,40.8,19.5,30.18,SW,223,2.0,5.0,42,0.00,CLR,,0.00,WeatherDisplay:10.37,2013-01-26 03:10:00,
2013-01-25 21:15:00,40.8,19.5,30.18,SW,224,3.0,5.0,42,0.00,CLR,,0.00,WeatherDisplay:10.37,2013-01-26 03:15:00,
2013-01-25 21:20:00,40.7,19.3,30.18,SW,225,2.0,5.0,42,0.00,CLR,,0.00,WeatherDisplay:10.37,2013-01-26 03:20:00,
2013-01-25 21:30:00,40.5,19.7,30.18,SW,225,1.0,3.0,43,0.00,CLR,,0.00,WeatherDisplay:10.37,2013-01-26 03:30:00,
2013-01-25 21:40:00,40.4,19.6,30.18,SW,225,0.0,1.0,43,0.00,CLR,,0.00,WeatherDisplay:10.37,2013-01-26 03:40:00,
2013-01-25 21:45:00,40.2,19.5,30.18,SW,225,1.0,2.0,43,0.00,CLR,,0.00,WeatherDisplay:10.37,2013-01-26 03:45:00,
2013-01-25 21:50:00,40.1,19.4,30.19,SW,225,0.0,1.0,43,0.00,CLR,,0.00,WeatherDisplay:10.37,2013-01-26 03:50:00,
2013-01-25 22:00:00,39.7,19.5,30.19,SW,225,0.0,0.0,44,0.00,CLR,,0.00,WeatherDisplay:10.37,2013-01-26 04:00:00,
2013-01-25 22:05:00,39.6,19.5,30.19,SW,225,1.0,2.0,44,0.00,CLR,,0.00,WeatherDisplay:10.37,2013-01-26 04:05:00,
2013-01-25 22:10:00,39.9,19.7,30.19,SW,225,0.0,2.0,44,0.00,CLR,,0.00,WeatherDisplay:10.37,2013-01-26 04:10:00,
2013-01-25 22:15:00,40.1,19.9,30.19,SW,225,0.0,1.0,44,0.00,CLR,,0.00,WeatherDisplay:10.37,2013-01-26 04:15:00,
2013-01-25 22:20:00,40.1,19.9,30.18,SW,225,0.0,0.0,44,0.00,CLR,,0.00,WeatherDisplay:10.37,2013-01-26 04:20:00,
2013-01-25 22:25:00,40.1,19.9,30.18,SW,225,0.0,1.0,44,0.00,CLR,,0.00,WeatherDisplay:10.37,2013-01-26 04:25:00,
2013-01-25 22:30:00,40.3,20.1,30.18,SW,225,0.0,1.0,44,0.00,CLR,,0.00,WeatherDisplay:10.37,2013-01-26 04:30:00,
2013-01-25 22:40:00,40.5,20.2,30.18,SW,225,0.0,1.0,44,0.00,CLR,,0.00,WeatherDisplay:10.37,2013-01-26 04:40:00,
2013-01-25 22:45:00,40.5,20.3,30.18,SW,225,0.0,0.0,44,0.00,CLR,,0.00,WeatherDisplay:10.37,2013-01-26 04:45:00,
2013-01-25 22:50:00,40.6,20.4,30.18,SW,225,0.0,0.0,44,0.00,CLR,,0.00,WeatherDisplay:10.37,2013-01-26 04:50:00,
2013-01-25 22:55:00,40.7,20.5,30.18,SW,225,1.0,2.0,44,0.00,CLR,,0.00,WeatherDisplay:10.37,2013-01-26 04:55:00,
2013-01-25 23:00:00,40.9,20.6,30.18,SW,225,0.0,2.0,44,0.00,CLR,,0.00,WeatherDisplay:10.37,2013-01-26 05:00:00,
2013-01-25 23:10:00,40.8,20.5,30.18,SW,225,0.0,0.0,44,0.00,CLR,,0.00,WeatherDisplay:10.37,2013-01-26 05:10:00,
2013-01-25 23:15:00,40.6,20.4,30.18,SW,225,0.0,0.0,44,0.00,CLR,,0.00,WeatherDisplay:10.37,2013-01-26 05:15:00,
2013-01-25 23:20:00,40.5,20.3,30.19,SW,225,0.0,0.0,44,0.00,CLR,,0.00,WeatherDisplay:10.37,2013-01-26 05:20:00,
2013-01-25 23:25:00,40.4,20.2,30.19,SW,225,0.0,0.0,44,0.00,CLR,,0.00,WeatherDisplay:10.37,2013-01-26 05:25:00,
2013-01-25 23:30:00,40.5,20.8,30.19,SW,225,1.0,2.0,45,0.00,CLR,,0.00,WeatherDisplay:10.37,2013-01-26 05:30:00,
2013-01-25 23:35:00,40.7,20.5,30.19,SW,225,2.0,2.0,44,0.00,CLR,,0.00,WeatherDisplay:10.37,2013-01-26 05:35:00,
2013-01-25 23:40:00,40.7,20.5,30.20,SW,225,2.0,4.0,44,0.00,CLR,,0.00,WeatherDisplay:10.37,2013-01-26 05:40:00,
2013-01-25 23:45:00,40.6,20.4,30.20,SW,225,2.0,4.0,44,0.00,CLR,,0.00,WeatherDisplay:10.37,2013-01-26 05:45:00,
2013-01-25 23:50:00,40.2,20.0,30.20,SW,225,2.0,4.0,44,0.00,CLR,,0.00,WeatherDisplay:10.37,2013-01-26 05:50:00,